createdAt,value
2024-02-24T00:00:26.707Z,8.30
2024-02-24T00:02:53.203Z,8.30
2024-02-24T00:05:20.489Z,8.30
2024-02-24T00:07:47.081Z,8.30
2024-02-24T00:10:13.676Z,8.30
2024-02-24T00:12:40.116Z,8.30
2024-02-24T00:15:07.617Z,8.30
2024-02-24T00:17:34.327Z,8.30
2024-02-24T00:20:00.881Z,8.30
2024-02-24T00:22:27.312Z,8.30
2024-02-24T00:24:53.951Z,8.30
2024-02-24T00:27:20.474Z,8.30
2024-02-24T00:29:46.957Z,8.30
2024-02-24T00:32:13.489Z,8.30
2024-02-24T00:34:40.267Z,8.30
2024-02-24T00:37:06.792Z,8.30
2024-02-24T00:39:33.275Z,8.30
2024-02-24T00:41:59.816Z,8.30
2024-02-24T00:44:26.360Z,8.30
2024-02-24T00:46:52.859Z,8.30
2024-02-24T00:49:19.509Z,8.30
2024-02-24T00:51:46.106Z,8.30
2024-02-24T00:54:12.604Z,8.28
2024-02-24T00:56:39.211Z,8.28
2024-02-24T00:59:06.372Z,8.20
2024-02-24T01:01:33.240Z,8.22
2024-02-24T01:04:00.919Z,8.22
2024-02-24T01:06:27.545Z,8.20
2024-02-24T01:08:54.048Z,8.20
2024-02-24T01:11:20.658Z,8.20
2024-02-24T01:13:47.222Z,8.20
2024-02-24T01:16:13.704Z,8.20
2024-02-24T01:18:40.332Z,8.20
2024-02-24T01:21:06.849Z,8.20
2024-02-24T01:23:34.130Z,8.20
2024-02-24T01:26:00.714Z,8.18
2024-02-24T01:28:27.243Z,8.10
2024-02-24T01:30:53.713Z,8.10
2024-02-24T01:33:20.312Z,8.10
2024-02-24T01:35:47.012Z,8.10
2024-02-24T01:38:13.672Z,8.10
2024-02-24T01:40:40.306Z,8.10
2024-02-24T01:43:30.575Z,8.10
2024-02-24T01:45:58.118Z,8.10
2024-02-24T01:48:25.126Z,8.10
2024-02-24T01:50:53.815Z,8.10
2024-02-24T01:53:22.556Z,8.10
2024-02-24T01:55:50.939Z,8.10
2024-02-24T01:58:22.113Z,8.10
2024-02-24T02:00:49.028Z,8.10
2024-02-24T02:03:15.700Z,8.00
2024-02-24T02:05:42.688Z,8.00
2024-02-24T02:08:09.299Z,8.00
2024-02-24T02:10:54.118Z,8.00
2024-02-24T02:13:21.577Z,8.00
2024-02-24T02:15:51.678Z,8.10
2024-02-24T02:18:18.439Z,8.10
2024-02-24T02:20:49.775Z,8.10
2024-02-24T02:23:16.403Z,8.08
2024-02-24T02:25:43.418Z,8.04
2024-02-24T02:28:10.172Z,8.10
2024-02-24T02:30:36.759Z,8.10
2024-02-24T02:33:04.759Z,8.10
2024-02-24T02:35:32.819Z,8.10
2024-02-24T02:37:59.568Z,8.10
2024-02-24T02:40:26.161Z,8.10
2024-02-24T02:42:52.692Z,8.10
2024-02-24T02:45:19.163Z,8.10
2024-02-24T02:47:45.709Z,8.10
2024-02-24T02:50:12.356Z,8.10
2024-02-24T02:52:38.928Z,8.08
2024-02-24T02:55:05.978Z,8.04
2024-02-24T02:57:32.490Z,8.00
2024-02-24T02:59:59.048Z,8.04
2024-02-24T03:02:25.575Z,8.10
2024-02-24T03:04:52.256Z,8.10
2024-02-24T03:07:18.918Z,8.10
2024-02-24T03:09:48.965Z,8.10
2024-02-24T03:12:16.196Z,8.10
2024-02-24T03:14:45.888Z,8.10
2024-02-24T03:17:12.643Z,8.00
2024-02-24T03:19:41.205Z,8.00
2024-02-24T03:22:07.946Z,8.00
2024-02-24T03:24:34.606Z,8.00
2024-02-24T03:27:01.469Z,8.00
2024-02-24T03:29:28.004Z,8.00
2024-02-24T03:31:54.545Z,8.00
2024-02-24T03:34:21.070Z,8.00
2024-02-24T03:36:47.603Z,8.00
2024-02-24T03:39:14.243Z,8.00
2024-02-24T03:41:40.908Z,8.00
2024-02-24T03:44:07.486Z,8.00
2024-02-24T03:46:34.196Z,8.00
2024-02-24T03:49:00.855Z,8.00
2024-02-24T03:51:27.372Z,8.00
2024-02-24T03:53:53.857Z,8.00
2024-02-24T03:56:20.370Z,8.00
2024-02-24T03:58:47.062Z,8.00
2024-02-24T04:01:13.837Z,8.00
2024-02-24T04:03:40.686Z,8.00
2024-02-24T04:06:07.932Z,8.00
2024-02-24T04:08:34.958Z,8.00
2024-02-24T04:11:02.429Z,8.00
2024-02-24T04:13:28.999Z,8.00
2024-02-24T04:15:55.573Z,8.00
2024-02-24T04:18:22.229Z,8.00
2024-02-24T04:20:49.124Z,8.00
2024-02-24T04:23:15.957Z,8.00
2024-02-24T04:25:42.706Z,8.00
2024-02-24T04:28:10.690Z,8.00
2024-02-24T04:30:38.845Z,8.00
2024-02-24T04:33:06.151Z,8.00
2024-02-24T04:35:32.811Z,8.00
2024-02-24T04:37:59.332Z,8.00
2024-02-24T04:40:25.783Z,8.00
2024-02-24T04:42:52.423Z,8.00
2024-02-24T04:45:18.950Z,8.00
2024-02-24T04:47:45.654Z,8.10
2024-02-24T04:50:12.318Z,8.10
2024-02-24T04:52:38.859Z,8.10
2024-02-24T04:55:06.014Z,8.10
2024-02-24T04:57:32.701Z,8.10
2024-02-24T04:59:59.205Z,8.10
2024-02-24T05:02:25.786Z,8.10
2024-02-24T05:04:53.733Z,8.10
2024-02-24T05:07:20.418Z,8.10
2024-02-24T05:09:47.047Z,8.10
2024-02-24T05:12:13.867Z,8.10
2024-02-24T05:14:40.424Z,8.14
2024-02-24T05:17:09.081Z,8.20
2024-02-24T05:19:36.034Z,8.20
2024-02-24T05:22:02.721Z,8.20
2024-02-24T05:24:29.235Z,8.20
2024-02-24T05:26:55.775Z,8.20
2024-02-24T05:29:22.281Z,8.20
2024-02-24T05:31:48.783Z,8.24
2024-02-24T05:34:15.405Z,8.28
2024-02-24T05:36:42.071Z,8.30
2024-02-24T05:39:08.759Z,8.30
2024-02-24T05:41:35.333Z,8.30
2024-02-24T05:44:01.873Z,8.30
2024-02-24T05:46:28.430Z,8.30
2024-02-24T05:48:54.888Z,8.34
2024-02-24T05:51:22.783Z,8.40
2024-02-24T05:53:49.905Z,8.40
2024-02-24T05:56:16.790Z,8.40
2024-02-24T05:58:43.460Z,8.40
2024-02-24T06:01:10.222Z,8.40
2024-02-24T06:03:37.349Z,8.50
2024-02-24T06:08:29.665Z,8.50
2024-02-24T06:10:56.334Z,8.50
2024-02-24T06:13:22.810Z,8.58
2024-02-24T06:15:49.273Z,8.60
2024-02-24T06:18:16.864Z,8.60
2024-02-24T06:20:43.657Z,8.60
2024-02-24T06:23:10.413Z,8.60
2024-02-24T06:25:36.999Z,8.60
2024-02-24T06:30:29.858Z,8.70
2024-02-24T06:32:56.408Z,8.70
2024-02-24T06:35:23.041Z,8.70
2024-02-24T06:37:49.523Z,8.70
2024-02-24T06:40:25.639Z,8.70
2024-02-24T06:42:56.381Z,8.70
2024-02-24T06:45:22.968Z,8.74
2024-02-24T06:47:49.809Z,8.70
2024-02-24T06:50:16.515Z,8.80
2024-02-24T06:52:43.527Z,8.72
2024-02-24T06:55:10.123Z,8.78
2024-02-24T06:57:36.590Z,8.80
2024-02-24T07:02:29.780Z,8.80
2024-02-24T07:04:56.370Z,8.80
2024-02-24T07:07:22.984Z,8.80
2024-02-24T07:09:49.570Z,8.84
2024-02-24T07:12:16.105Z,8.90
2024-02-24T07:14:42.787Z,8.90
2024-02-24T07:17:09.394Z,8.90
2024-02-24T07:19:36.164Z,8.90
2024-02-24T07:22:02.766Z,8.90
2024-02-24T07:24:29.275Z,8.96
2024-02-24T07:26:55.817Z,8.94
2024-02-24T07:29:22.307Z,8.92
2024-02-24T07:31:48.856Z,8.94
2024-02-24T07:34:15.767Z,8.90
2024-02-24T07:36:42.387Z,8.98
2024-02-24T07:39:08.890Z,9.00
2024-02-24T07:41:40.545Z,8.96
2024-02-24T07:44:07.095Z,8.98
2024-02-24T07:46:33.919Z,8.94
2024-02-24T07:49:01.979Z,8.96
2024-02-24T07:51:29.717Z,9.00
2024-02-24T07:54:00.335Z,8.92
2024-02-24T07:56:27.392Z,8.92
2024-02-24T07:58:54.421Z,8.98
2024-02-24T08:01:21.113Z,8.98
2024-02-24T08:03:47.739Z,8.90
2024-02-24T08:06:14.299Z,8.90
2024-02-24T08:08:40.879Z,8.90
2024-02-24T08:11:08.148Z,8.90
2024-02-24T08:13:42.760Z,8.90
2024-02-24T08:16:10.394Z,8.90
2024-02-24T08:18:37.237Z,8.90
2024-02-24T08:21:05.667Z,9.00
2024-02-24T08:23:39.345Z,9.00
2024-02-24T08:26:05.926Z,9.10
2024-02-24T08:28:32.426Z,9.10
2024-02-24T08:31:02.266Z,9.10
2024-02-24T08:33:29.025Z,9.10
2024-02-24T08:35:55.801Z,9.10
2024-02-24T08:38:22.509Z,9.10
2024-02-24T08:40:49.166Z,9.00
2024-02-24T08:43:15.715Z,8.90
2024-02-24T08:45:44.761Z,8.90
2024-02-24T08:48:13.814Z,8.90
2024-02-24T08:50:41.699Z,8.90
2024-02-24T08:53:08.380Z,8.90
2024-02-24T08:55:35.067Z,8.82
2024-02-24T08:58:01.656Z,8.80
2024-02-24T09:00:28.245Z,8.70
2024-02-24T09:02:54.945Z,8.60
2024-02-24T09:05:22.061Z,8.50
2024-02-24T09:07:48.813Z,8.40
2024-02-24T09:10:15.688Z,8.28
2024-02-24T09:12:42.203Z,8.20
2024-02-24T09:15:09.247Z,8.10
2024-02-24T09:17:35.900Z,8.00
2024-02-24T09:20:02.530Z,7.90
2024-02-24T09:22:29.351Z,7.88
2024-02-24T09:24:55.925Z,7.78
2024-02-24T09:27:22.428Z,7.70
2024-02-24T09:29:48.994Z,7.80
2024-02-24T09:32:18.778Z,7.80
2024-02-24T09:34:46.092Z,7.90
2024-02-24T09:37:12.878Z,7.92
2024-02-24T09:39:41.788Z,8.02
2024-02-24T09:42:10.630Z,8.20
2024-02-24T09:44:38.069Z,8.20
2024-02-24T09:49:32.141Z,8.24
2024-02-24T09:52:00.164Z,8.20
2024-02-24T09:54:28.996Z,8.20
2024-02-24T09:56:56.719Z,8.20
2024-02-24T09:59:24.278Z,8.10
2024-02-24T10:01:51.706Z,8.04
2024-02-24T10:04:20.533Z,8.00
2024-02-24T10:06:47.245Z,8.00
2024-02-24T10:09:14.135Z,8.10
2024-02-24T10:11:41.818Z,8.10
2024-02-24T10:14:09.606Z,8.10
2024-02-24T10:16:39.425Z,8.10
2024-02-24T10:19:07.622Z,8.20
2024-02-24T10:21:35.413Z,8.28
2024-02-24T10:24:03.909Z,8.30
2024-02-24T10:26:31.020Z,8.28
2024-02-24T10:28:58.163Z,8.20
2024-02-24T10:31:25.142Z,8.14
2024-02-24T10:33:54.310Z,8.10
2024-02-24T10:36:21.755Z,8.10
2024-02-24T10:38:55.999Z,8.10
2024-02-24T10:41:26.639Z,8.10
2024-02-24T10:44:05.936Z,8.06
2024-02-24T10:46:30.653Z,8.10
2024-02-24T10:48:57.347Z,8.20
2024-02-24T10:51:24.212Z,8.20
2024-02-24T10:54:02.087Z,8.30
2024-02-24T10:56:30.305Z,8.30
2024-02-24T10:59:06.134Z,8.30
2024-02-24T11:01:33.165Z,8.40
2024-02-24T11:04:01.087Z,8.48
2024-02-24T11:06:49.584Z,8.50
2024-02-24T11:09:21.511Z,8.40
2024-02-24T11:11:49.263Z,8.40
2024-02-24T11:14:21.452Z,8.40
2024-02-24T11:16:49.893Z,8.40
2024-02-24T11:19:49.334Z,8.40
2024-02-24T11:22:28.461Z,8.40
2024-02-24T11:25:03.161Z,8.30
2024-02-24T11:27:32.133Z,8.30
2024-02-24T11:29:59.882Z,8.30
2024-02-24T11:32:27.007Z,8.24
2024-02-24T11:34:56.764Z,8.18
2024-02-24T11:37:23.930Z,8.10
2024-02-24T11:39:50.460Z,8.02
2024-02-24T11:42:18.486Z,8.00
2024-02-24T11:44:47.841Z,8.00
2024-02-24T11:47:19.583Z,7.96
2024-02-24T11:49:49.852Z,8.00
2024-02-24T11:52:16.998Z,8.00
2024-02-24T11:54:45.234Z,8.00
2024-02-24T11:57:13.322Z,8.00
2024-02-24T11:59:41.593Z,8.00
2024-02-24T12:02:08.211Z,8.00
2024-02-24T12:04:35.136Z,8.00
2024-02-24T12:09:30.753Z,8.00
2024-02-24T12:11:58.038Z,8.10
2024-02-24T12:14:29.700Z,8.10
2024-02-24T12:16:59.452Z,8.14
2024-02-24T12:19:28.938Z,8.20
2024-02-24T12:21:55.948Z,8.30
2024-02-24T12:24:28.205Z,8.40
2024-02-24T12:26:59.493Z,8.40
2024-02-24T12:29:26.094Z,8.50
2024-02-24T12:31:52.767Z,8.62
2024-02-24T12:34:19.407Z,8.70
2024-02-24T12:36:46.308Z,8.80
2024-02-24T12:39:12.921Z,8.90
2024-02-24T12:41:43.103Z,9.02
2024-02-24T12:44:09.938Z,9.20
2024-02-24T12:46:37.555Z,9.30
2024-02-24T12:49:04.160Z,9.40
2024-02-24T12:51:30.754Z,9.50
2024-02-24T12:53:57.473Z,9.70
2024-02-24T12:56:24.094Z,9.88
2024-02-24T12:58:50.595Z,10.00
2024-02-24T13:01:17.251Z,10.10
2024-02-24T13:03:43.956Z,10.20
2024-02-24T13:06:11.478Z,10.20
2024-02-24T13:08:38.370Z,10.20
2024-02-24T13:13:31.328Z,10.10
2024-02-24T13:15:57.878Z,10.10
2024-02-24T13:18:24.483Z,10.00
2024-02-24T13:20:51.133Z,10.00
2024-02-24T13:23:18.298Z,9.96
2024-02-24T13:25:45.109Z,9.90
2024-02-24T13:28:15.717Z,9.80
2024-02-24T13:30:42.157Z,9.76
2024-02-24T13:33:08.825Z,9.70
2024-02-24T13:35:35.453Z,9.70
2024-02-24T13:38:02.091Z,9.60
2024-02-24T13:40:28.543Z,9.64
2024-02-24T13:42:55.231Z,9.70
2024-02-24T13:45:21.689Z,9.76
2024-02-24T13:47:52.043Z,9.78
2024-02-24T13:50:21.264Z,9.80
2024-02-24T13:52:47.863Z,9.80
2024-02-24T13:55:14.504Z,9.80
2024-02-24T13:57:42.587Z,9.82
2024-02-24T14:00:11.848Z,9.80
2024-02-24T14:02:38.514Z,9.80
2024-02-24T14:07:31.417Z,9.70
2024-02-24T14:09:57.948Z,9.70
2024-02-24T14:12:24.780Z,9.60
2024-02-24T14:14:51.454Z,9.60
2024-02-24T14:17:18.168Z,9.60
2024-02-24T14:19:44.798Z,9.62
2024-02-24T14:22:11.315Z,9.70
2024-02-24T14:24:38.604Z,9.70
2024-02-24T14:27:05.900Z,9.78
2024-02-24T14:29:32.487Z,9.80
2024-02-24T14:31:59.112Z,9.90
2024-02-24T14:34:26.380Z,9.90
2024-02-24T14:36:55.270Z,10.00
2024-02-24T14:39:22.156Z,9.92
2024-02-24T14:41:48.704Z,9.90
2024-02-24T14:47:06.725Z,9.90
2024-02-24T14:52:01.311Z,9.86
2024-02-24T14:54:53.402Z,9.84
2024-02-24T14:57:20.213Z,9.84
2024-02-24T14:59:47.113Z,9.82
2024-02-24T15:02:22.433Z,9.80
2024-02-24T15:04:56.929Z,9.80
2024-02-24T15:07:23.738Z,9.80
2024-02-24T15:09:50.681Z,9.70
2024-02-24T15:12:17.279Z,9.70
2024-02-24T15:14:47.026Z,9.60
2024-02-24T15:17:14.480Z,9.52
2024-02-24T15:19:42.054Z,9.50
2024-02-24T15:22:08.830Z,9.40
2024-02-24T15:24:35.323Z,9.30
2024-02-24T15:27:02.141Z,9.20
2024-02-24T15:29:32.216Z,9.14
2024-02-24T15:31:58.693Z,9.10
2024-02-24T15:34:26.516Z,9.00
2024-02-24T15:36:53.194Z,8.90
2024-02-24T15:39:19.789Z,8.80
2024-02-24T15:41:49.415Z,8.76
2024-02-24T15:44:16.063Z,8.70
2024-02-24T15:46:44.501Z,8.60
2024-02-24T15:49:11.688Z,8.50
2024-02-24T15:51:38.277Z,8.40
2024-02-24T15:56:37.412Z,8.20
2024-02-24T15:59:03.929Z,8.10
2024-02-24T16:01:30.431Z,8.00
2024-02-24T16:03:57.326Z,7.90
2024-02-24T16:06:29.676Z,7.80
2024-02-24T16:08:58.285Z,7.70
2024-02-24T16:11:25.023Z,7.60
2024-02-24T16:13:51.727Z,7.50
2024-02-24T16:16:20.565Z,7.40
2024-02-24T16:18:47.262Z,7.30
2024-02-24T16:21:13.988Z,7.26
2024-02-24T16:23:40.634Z,7.20
2024-02-24T16:26:07.165Z,7.10
2024-02-24T16:28:33.657Z,7.06
2024-02-24T16:31:00.143Z,7.00
2024-02-24T16:33:26.777Z,6.88
2024-02-24T16:35:53.453Z,6.80
2024-02-24T16:38:20.013Z,6.70
2024-02-24T16:40:46.623Z,6.68
2024-02-24T16:43:13.077Z,6.60
2024-02-24T16:45:39.592Z,6.50
2024-02-24T16:48:07.292Z,6.46
2024-02-24T16:50:34.453Z,6.40
2024-02-24T16:53:00.930Z,6.30
2024-02-24T16:55:27.444Z,6.30
2024-02-24T16:57:53.975Z,6.20
2024-02-24T17:00:21.639Z,6.18
2024-02-24T17:02:50.041Z,6.10
2024-02-24T17:05:16.738Z,6.00
2024-02-24T17:07:43.275Z,6.00
2024-02-24T17:10:10.309Z,5.90
2024-02-24T17:12:37.008Z,5.86
2024-02-24T17:15:05.608Z,5.80
2024-02-24T17:17:31.509Z,5.70
2024-02-24T17:19:58.455Z,5.70
2024-02-24T17:22:25.047Z,5.60
2024-02-24T17:24:52.816Z,5.60
2024-02-24T17:27:19.789Z,5.50
2024-02-24T17:29:46.322Z,5.50
2024-02-24T17:32:14.159Z,5.50
2024-02-24T17:34:40.711Z,5.40
2024-02-24T17:37:07.240Z,5.40
2024-02-24T17:39:33.856Z,5.32
2024-02-24T17:42:00.444Z,5.30
2024-02-24T17:44:27.086Z,5.22
2024-02-24T17:46:53.637Z,5.20
2024-02-24T17:49:25.809Z,5.20
2024-02-24T17:51:53.078Z,5.20
2024-02-24T17:54:19.611Z,5.12
2024-02-24T17:56:46.267Z,5.10
2024-02-24T17:59:12.713Z,5.10
2024-02-24T18:01:39.230Z,5.00
2024-02-24T18:06:32.135Z,4.98
2024-02-24T18:08:58.795Z,4.90
2024-02-24T18:11:26.223Z,4.90
2024-02-24T18:13:52.826Z,4.86
2024-02-24T18:16:19.319Z,4.80
2024-02-24T18:18:46.324Z,4.80
2024-02-24T18:21:19.037Z,4.80
2024-02-24T18:23:45.752Z,4.80
2024-02-24T18:26:12.423Z,4.74
2024-02-24T18:28:38.867Z,4.70
2024-02-24T18:33:31.857Z,4.70
2024-02-24T18:35:58.409Z,4.70
2024-02-24T18:38:25.083Z,4.62
2024-02-24T18:40:52.215Z,4.60
2024-02-24T18:43:20.727Z,4.60
2024-02-24T18:45:47.454Z,4.60
2024-02-24T18:48:14.204Z,4.50
2024-02-24T18:50:40.775Z,4.50
2024-02-24T18:53:07.376Z,4.50
2024-02-24T18:55:35.549Z,4.48
2024-02-24T18:58:02.744Z,4.40
2024-02-24T19:00:29.267Z,4.40
2024-02-24T19:02:55.962Z,4.40
2024-02-24T19:05:22.651Z,4.36
2024-02-24T19:07:51.088Z,4.30
2024-02-24T19:10:21.454Z,4.30
2024-02-24T19:12:48.224Z,4.30
2024-02-24T19:15:15.037Z,4.30
2024-02-24T19:17:42.238Z,4.30
2024-02-24T19:20:09.291Z,4.30
2024-02-24T19:22:35.880Z,4.30
2024-02-24T19:25:02.550Z,4.30
2024-02-24T19:27:29.177Z,4.20
2024-02-24T19:29:55.882Z,4.20
2024-02-24T19:32:23.110Z,4.20
2024-02-24T19:34:52.295Z,4.20
2024-02-24T19:37:19.362Z,4.20
2024-02-24T19:39:46.088Z,4.10
2024-02-24T19:42:12.784Z,4.10
2024-02-24T19:44:39.420Z,4.02
2024-02-24T19:49:31.909Z,3.90
2024-02-24T19:51:58.437Z,3.90
2024-02-24T19:54:24.895Z,3.90
2024-02-24T19:56:51.483Z,3.80
2024-02-24T19:59:18.107Z,3.80
2024-02-24T20:01:44.818Z,3.80
2024-02-24T20:04:11.532Z,3.70
2024-02-24T20:06:38.717Z,3.70
2024-02-24T20:09:05.343Z,3.70
2024-02-24T20:11:33.738Z,3.62
2024-02-24T20:14:00.331Z,3.60
2024-02-24T20:16:27.014Z,3.60
2024-02-24T20:18:53.833Z,3.60
2024-02-24T20:21:20.420Z,3.60
2024-02-24T20:23:47.519Z,3.58
2024-02-24T20:26:14.307Z,3.50
2024-02-24T20:28:44.807Z,3.52
2024-02-24T20:31:14.278Z,3.50
2024-02-24T20:33:45.814Z,3.50
2024-02-24T20:36:17.932Z,3.50
2024-02-24T20:38:48.203Z,3.40
2024-02-24T20:41:17.754Z,3.40
2024-02-24T20:43:45.164Z,3.40
2024-02-24T20:46:12.031Z,3.36
2024-02-24T20:48:38.605Z,3.30
2024-02-24T20:51:05.401Z,3.30
2024-02-24T20:53:32.015Z,3.20
2024-02-24T20:55:58.566Z,3.20
2024-02-24T20:58:25.087Z,3.20
2024-02-24T21:00:51.608Z,3.10
2024-02-24T21:03:18.344Z,3.10
2024-02-24T21:05:45.071Z,3.00
2024-02-24T21:08:13.417Z,3.00
2024-02-24T21:10:40.115Z,2.90
2024-02-24T21:13:07.754Z,2.90
2024-02-24T21:15:34.414Z,2.90
2024-02-24T21:18:01.443Z,2.80
2024-02-24T21:20:28.064Z,2.80
2024-02-24T21:22:54.552Z,2.70
2024-02-24T21:25:28.451Z,2.70
2024-02-24T21:27:59.140Z,2.70
2024-02-24T21:30:26.271Z,2.60
2024-02-24T21:32:54.102Z,2.60
2024-02-24T21:35:20.844Z,2.60
2024-02-24T21:37:47.360Z,2.60
2024-02-24T21:40:14.012Z,2.60
2024-02-24T21:42:40.535Z,2.60
2024-02-24T21:45:07.933Z,2.60
2024-02-24T21:47:34.563Z,2.50
2024-02-24T21:50:01.089Z,2.50
2024-02-24T21:52:27.562Z,2.50
2024-02-24T21:54:54.130Z,2.50
2024-02-24T21:57:20.574Z,2.50
2024-02-24T21:59:47.244Z,2.44
2024-02-24T22:02:13.906Z,2.44
2024-02-24T22:04:40.354Z,2.46
2024-02-24T22:09:34.071Z,2.48
2024-02-24T22:12:00.579Z,2.50
2024-02-24T22:14:28.994Z,2.50
2024-02-24T22:16:55.505Z,2.50
2024-02-24T22:19:22.095Z,2.54
2024-02-24T22:21:50.242Z,2.60
2024-02-24T22:24:17.099Z,2.60
2024-02-24T22:26:46.924Z,2.70
2024-02-24T22:29:16.942Z,2.70
2024-02-24T22:31:46.135Z,2.80
2024-02-24T22:34:12.752Z,2.80
2024-02-24T22:36:39.361Z,2.90
2024-02-24T22:39:05.922Z,2.90
2024-02-24T22:41:32.400Z,2.90
2024-02-24T22:43:59.197Z,2.98
2024-02-24T22:46:29.739Z,3.00
2024-02-24T22:48:56.342Z,3.00
2024-02-24T22:51:25.049Z,3.00
2024-02-24T22:53:52.104Z,3.10
2024-02-24T22:56:18.678Z,3.10
2024-02-24T22:58:46.320Z,3.10
2024-02-24T23:01:15.905Z,3.10
2024-02-24T23:03:42.769Z,3.10
2024-02-24T23:06:09.825Z,3.10
2024-02-24T23:08:36.532Z,3.10
2024-02-24T23:11:03.231Z,3.20
2024-02-24T23:13:29.742Z,3.20
2024-02-24T23:15:56.213Z,3.20
2024-02-24T23:18:24.002Z,3.20
2024-02-24T23:20:51.069Z,3.20
2024-02-24T23:23:17.604Z,3.20
2024-02-24T23:25:44.422Z,3.24
2024-02-24T23:28:12.091Z,3.30
2024-02-24T23:30:38.696Z,3.30
2024-02-24T23:33:06.027Z,3.30
2024-02-24T23:35:33.828Z,3.30
2024-02-24T23:38:01.835Z,3.30
2024-02-24T23:40:28.358Z,3.30
2024-02-24T23:42:54.812Z,3.30
2024-02-24T23:45:21.257Z,3.30
2024-02-24T23:47:47.810Z,3.30
2024-02-24T23:50:14.392Z,3.30
2024-02-24T23:52:41.407Z,3.30
2024-02-24T23:55:08.343Z,3.30
2024-02-24T23:57:35.284Z,3.30
